Time;durP1;ratioP1;P1;durP2;ratioP2;P2;SDS_P1;SDS_P2;PMS_P1;PMS_P2;Temp;Humidity;BMP_temperature;BMP_pressure;BME280_temperature;BME280_humidity;BME280_pressure;Samples;Min_cycle;Max_cycle;Signal;HPM_P1;HPM_P2
2022/09/15 00:04:54;;;;;;;18.52;16.52;;;;;;;;;;10362224;28;20763;-81
2022/09/15 00:09:56;;;;;;;20.17;16.40;;;;;;;;;;10358283;28;21244;-80
2022/09/15 00:14:58;;;;;;;18.30;14.82;;;;;;;;;;10363421;28;20859;-80
2022/09/15 00:20:04;;;;;;;16.90;14.93;;;;;;;;;;10361457;28;20433;-81
2022/09/15 00:25:06;;;;;;;16.83;14.60;;;;;;;;;;10362166;28;20414;-80
2022/09/15 00:30:09;;;;;;;19.30;14.20;;;;;;;;;;10357997;28;20417;-80
2022/09/15 00:35:13;;;;;;;18.65;14.75;;;;;;;;;;10358961;28;20494;-81
2022/09/15 00:40:15;;;;;;;20.00;15.45;;;;;;;;;;10358959;28;20803;-81
2022/09/15 00:45:17;;;;;;;17.92;14.82;;;;;;;;;;10350500;28;20494;-81
2022/09/15 00:50:21;;;;;;;20.05;14.88;;;;;;;;;;10360415;28;20395;-79
2022/09/15 00:55:28;;;;;;;18.38;15.18;;;;;;;;;;10350659;28;20762;-80
2022/09/15 01:00:30;;;;;;;18.87;16.33;;;;;;;;;;10357058;28;20523;-82
2022/09/15 01:05:37;;;;;;;18.55;16.65;;;;;;;;;;10359499;28;20482;-81
2022/09/15 01:10:41;;;;;;;21.35;15.98;;;;;;;;;;10359911;28;20490;-81
2022/09/15 01:15:52;;;;;;;18.60;16.05;;;;;;;;;;10359542;28;20953;-80
2022/09/15 01:21:06;;;;;;;18.67;16.70;;;;;;;;;;10359139;28;20534;-79
2022/09/15 01:26:33;;;;;;;20.60;17.90;;;;;;;;;;10358469;28;20905;-80
2022/09/15 01:33:02;;;;;;;20.83;17.17;;;;;;;;;;10358897;28;20422;-79
2022/09/15 01:37:06;;;;;;;18.90;16.90;;;;;;;;;;10356837;28;20407;-79
2022/09/15 01:42:12;;;;;;;19.87;17.77;;;;;;;;;;10349677;28;20830;-80
2022/09/15 01:47:19;;;;;;;20.47;17.73;;;;;;;;;;10356743;28;20871;-79
2022/09/15 01:52:23;;;;;;;19.45;16.48;;;;;;;;;;10358870;28;20486;-79
2022/09/15 01:57:25;;;;;;;18.70;16.80;;;;;;;;;;10356896;28;20856;-80
2022/09/15 02:02:32;;;;;;;19.95;17.50;;;;;;;;;;10358276;28;20486;-80
2022/09/15 02:07:41;;;;;;;19.35;17.35;;;;;;;;;;10356991;28;20410;-79
2022/09/15 02:12:49;;;;;;;19.35;17.23;;;;;;;;;;10356623;28;20875;-81
2022/09/15 02:17:54;;;;;;;19.73;17.63;;;;;;;;;;10357182;28;20427;-79
2022/09/15 02:23:00;;;;;;;19.73;17.30;;;;;;;;;;10357829;28;20399;-79
2022/09/15 02:28:05;;;;;;;19.77;17.77;;;;;;;;;;10357343;28;20486;-81
2022/09/15 02:33:12;;;;;;;19.10;17.10;;;;;;;;;;10357282;28;20403;-81
2022/09/15 02:38:15;;;;;;;20.95;17.63;;;;;;;;;;10355385;28;20517;-82
2022/09/15 02:43:18;;;;;;;17.83;15.98;;;;;;;;;;10356299;28;20403;-81
2022/09/15 02:48:22;;;;;;;19.35;16.75;;;;;;;;;;10346595;28;20838;-82
2022/09/15 02:53:24;;;;;;;18.52;16.52;;;;;;;;;;10356792;28;20407;-79
2022/09/15 02:58:25;;;;;;;17.88;15.93;;;;;;;;;;10355842;28;20509;-82
2022/09/15 03:03:29;;;;;;;18.42;16.02;;;;;;;;;;10356854;28;20413;-81
2022/09/15 03:08:30;;;;;;;19.77;17.13;;;;;;;;;;10355763;28;20487;-81
2022/09/15 03:13:32;;;;;;;17.83;16.03;;;;;;;;;;10356635;28;20429;-81
2022/09/15 03:18:36;;;;;;;21.53;17.17;;;;;;;;;;10356434;28;20429;-82
2022/09/15 03:23:38;;;;;;;22.57;17.03;;;;;;;;;;10347339;28;20418;-83
2022/09/15 03:28:40;;;;;;;21.55;16.70;;;;;;;;;;10363058;28;20403;-81
2022/09/15 03:33:44;;;;;;;19.42;15.98;;;;;;;;;;10363764;28;20487;-81
2022/09/15 03:38:45;;;;;;;17.83;15.50;;;;;;;;;;10363336;28;20426;-80
2022/09/15 03:43:47;;;;;;;18.43;15.73;;;;;;;;;;10363622;28;20489;-80
2022/09/15 03:48:50;;;;;;;20.63;16.88;;;;;;;;;;10362385;28;20402;-79
2022/09/15 03:53:52;;;;;;;20.10;15.85;;;;;;;;;;10362914;28;20417;-78
2022/09/15 03:58:54;;;;;;;22.27;17.70;;;;;;;;;;10362050;28;20426;-77
2022/09/15 04:04:00;;;;;;;21.70;17.63;;;;;;;;;;10362340;28;20401;-79
2022/09/15 04:09:02;;;;;;;21.95;17.77;;;;;;;;;;10361565;28;20764;-80
2022/09/15 04:14:04;;;;;;;24.60;17.73;;;;;;;;;;10362672;28;20465;-80
2022/09/15 04:19:07;;;;;;;23.50;19.43;;;;;;;;;;10361220;28;20522;-82
2022/09/15 04:24:09;;;;;;;24.27;19.55;;;;;;;;;;10362015;28;20413;-81
2022/09/15 04:29:13;;;;;;;23.02;19.05;;;;;;;;;;10356614;28;20410;-79
2022/09/15 04:34:16;;;;;;;24.60;19.87;;;;;;;;;;10359352;28;20407;-81
2022/09/15 04:39:18;;;;;;;22.23;18.98;;;;;;;;;;10360572;28;20445;-81
2022/09/15 04:44:20;;;;;;;23.90;19.47;;;;;;;;;;10354642;28;20430;-82
2022/09/15 04:49:24;;;;;;;23.95;18.58;;;;;;;;;;10358531;28;20753;-81
2022/09/15 04:54:26;;;;;;;26.30;19.77;;;;;;;;;;10360784;28;20399;-83
2022/09/15 04:59:28;;;;;;;26.27;20.15;;;;;;;;;;10355984;28;20427;-80
2022/09/15 05:04:31;;;;;;;26.83;20.13;;;;;;;;;;10359631;28;20414;-82
2022/09/15 05:09:33;;;;;;;28.13;19.83;;;;;;;;;;10359574;28;20403;-81
2022/09/15 05:14:35;;;;;;;26.52;20.23;;;;;;;;;;10357968;28;20490;-79
2022/09/15 05:19:38;;;;;;;23.58;19.40;;;;;;;;;;10356311;28;20491;-80
2022/09/15 05:24:39;;;;;;;27.10;20.87;;;;;;;;;;10357189;28;20497;-82
2022/09/15 05:29:41;;;;;;;24.23;19.97;;;;;;;;;;10354114;28;20417;-81
2022/09/15 05:34:45;;;;;;;23.00;20.13;;;;;;;;;;10355880;28;20481;-83
2022/09/15 05:39:46;;;;;;;24.38;18.85;;;;;;;;;;10347117;28;20431;-81
2022/09/15 05:44:48;;;;;;;21.77;19.05;;;;;;;;;;10345975;28;20399;-80
2022/09/15 05:49:52;;;;;;;22.65;19.77;;;;;;;;;;10356578;28;20775;-79
2022/09/15 05:54:54;;;;;;;25.07;19.47;;;;;;;;;;10358110;28;20468;-82
2022/09/15 05:59:56;;;;;;;24.88;19.10;;;;;;;;;;10357692;28;20423;-82
2022/09/15 06:04:59;;;;;;;20.73;17.75;;;;;;;;;;10354826;28;20427;-80
2022/09/15 06:10:01;;;;;;;21.07;16.00;;;;;;;;;;10356614;28;20832;-81
2022/09/15 06:15:02;;;;;;;19.90;15.50;;;;;;;;;;10358567;28;20415;-81
2022/09/15 06:20:07;;;;;;;20.90;16.23;;;;;;;;;;10358133;28;20775;-81
2022/09/15 06:25:10;;;;;;;22.77;16.02;;;;;;;;;;10357781;28;20410;-81
2022/09/15 06:30:13;;;;;;;20.67;16.03;;;;;;;;;;10357801;28;20482;-80
2022/09/15 06:35:16;;;;;;;19.90;15.40;;;;;;;;;;10358495;28;20433;-82
2022/09/15 06:40:18;;;;;;;16.92;14.18;;;;;;;;;;10357892;28;20431;-82
2022/09/15 06:45:20;;;;;;;17.98;13.43;;;;;;;;;;10357928;28;20406;-82
2022/09/15 06:50:23;;;;;;;14.82;13.05;;;;;;;;;;10352866;28;20404;-80
2022/09/15 06:55:25;;;;;;;14.18;12.68;;;;;;;;;;10358115;28;20413;-82
2022/09/15 07:00:28;;;;;;;15.65;12.95;;;;;;;;;;10363577;28;20525;-80
2022/09/15 07:05:31;;;;;;;17.47;13.20;;;;;;;;;;10366751;28;20487;-81
2022/09/15 07:10:33;;;;;;;18.00;13.32;;;;;;;;;;10365171;28;20409;-80
2022/09/15 07:15:34;;;;;;;16.10;13.10;;;;;;;;;;10364614;28;20403;-79
2022/09/15 07:20:40;;;;;;;16.53;12.63;;;;;;;;;;10362525;28;20430;-82
2022/09/15 07:25:44;;;;;;;19.17;13.37;;;;;;;;;;10360986;28;20418;-81
2022/09/15 07:30:50;;;;;;;19.05;13.60;;;;;;;;;;10362709;28;20453;-80
2022/09/15 07:35:54;;;;;;;17.65;13.20;;;;;;;;;;10364092;28;20883;-81
2022/09/15 07:41:01;;;;;;;19.17;13.88;;;;;;;;;;10363772;28;20851;-81
2022/09/15 07:46:04;;;;;;;20.93;15.13;;;;;;;;;;10363208;28;20407;-82
2022/09/15 07:51:07;;;;;;;23.40;15.27;;;;;;;;;;10362408;28;21248;-79
2022/09/15 07:56:10;;;;;;;23.30;15.75;;;;;;;;;;10363086;28;20498;-81
2022/09/15 08:01:13;;;;;;;22.80;15.63;;;;;;;;;;10363247;28;20508;-81
2022/09/15 08:06:17;;;;;;;21.27;15.20;;;;;;;;;;10363285;28;20403;-82
2022/09/15 08:11:20;;;;;;;21.70;15.68;;;;;;;;;;10362966;28;20752;-82
2022/09/15 08:16:24;;;;;;;20.33;14.93;;;;;;;;;;10363274;28;20411;-81
2022/09/15 08:21:27;;;;;;;23.45;15.20;;;;;;;;;;10361583;28;20445;-81
2022/09/15 08:26:30;;;;;;;24.17;13.17;;;;;;;;;;10361911;28;20414;-80
2022/09/15 08:31:31;;;;;;;20.92;13.60;;;;;;;;;;10362199;28;20583;-82
2022/09/15 08:36:35;;;;;;;21.15;12.88;;;;;;;;;;10359457;28;20399;-80
2022/09/15 08:41:39;;;;;;;18.55;11.82;;;;;;;;;;10358735;28;20419;-80
2022/09/15 08:46:46;;;;;;;17.30;11.73;;;;;;;;;;10358325;28;20755;-80
2022/09/15 08:51:52;;;;;;;17.43;12.00;;;;;;;;;;10354904;28;20417;-82
2022/09/15 08:56:56;;;;;;;18.30;11.32;;;;;;;;;;10356677;28;20786;-80
2022/09/15 09:02:23;;;;;;;15.57;11.40;;;;;;;;;;10357382;28;20419;-81
2022/09/15 09:07:48;;;;;;;17.87;12.27;;;;;;;;;;10357064;28;20464;-80
2022/09/15 09:13:05;;;;;;;16.67;11.82;;;;;;;;;;10357316;28;20399;-81
2022/09/15 09:18:34;;;;;;;15.38;10.68;;;;;;;;;;10354311;28;20407;-80
2022/09/15 09:23:45;;;;;;;17.33;10.30;;;;;;;;;;10354902;28;20511;-80
2022/09/15 09:28:55;;;;;;;14.88;9.07;;;;;;;;;;10356003;28;20490;-81
2022/09/15 09:34:19;;;;;;;13.68;9.95;;;;;;;;;;10354133;28;20411;-80
2022/09/15 09:39:22;;;;;;;13.10;7.88;;;;;;;;;;10353279;28;20415;-80
2022/09/15 09:44:30;;;;;;;12.75;7.57;;;;;;;;;;10356644;28;20421;-79
2022/09/15 09:49:35;;;;;;;11.30;6.30;;;;;;;;;;10353285;28;20759;-81
2022/09/15 09:54:38;;;;;;;9.80;6.80;;;;;;;;;;10353308;28;20482;-81
2022/09/15 09:59:42;;;;;;;10.95;6.75;;;;;;;;;;10353540;28;20542;-81
2022/09/15 10:04:45;;;;;;;13.03;6.60;;;;;;;;;;10358219;28;20406;-79
2022/09/15 10:09:57;;;;;;;12.13;6.20;;;;;;;;;;10356356;28;20482;-82
2022/09/15 10:15:02;;;;;;;11.00;6.43;;;;;;;;;;10356170;28;20419;-79
2022/09/15 10:20:06;;;;;;;9.97;6.43;;;;;;;;;;10355001;28;20518;-81
2022/09/15 10:25:32;;;;;;;13.23;7.22;;;;;;;;;;10354012;28;20399;-80
2022/09/15 10:30:34;;;;;;;11.57;7.00;;;;;;;;;;10352217;28;20818;-81
2022/09/15 10:35:42;;;;;;;13.63;7.75;;;;;;;;;;10360049;28;20407;-79
2022/09/15 10:40:50;;;;;;;18.17;8.32;;;;;;;;;;10359959;28;20423;-79
2022/09/15 10:46:00;;;;;;;12.52;8.10;;;;;;;;;;10360919;28;20489;-80
2022/09/15 10:51:14;;;;;;;12.15;7.88;;;;;;;;;;10361367;28;20557;-79
2022/09/15 10:56:26;;;;;;;15.88;9.73;;;;;;;;;;10350869;28;20816;-80
2022/09/15 11:02:00;;;;;;;12.48;6.88;;;;;;;;;;10363856;28;20431;-79
2022/09/15 11:07:12;;;;;;;11.87;5.80;;;;;;;;;;10359089;28;20441;-79
2022/09/15 11:12:30;;;;;;;9.70;5.03;;;;;;;;;;10361079;28;20767;-81
2022/09/15 11:17:44;;;;;;;7.97;3.50;;;;;;;;;;10362085;28;20482;-81
2022/09/15 11:22:51;;;;;;;6.65;3.45;;;;;;;;;;10350714;28;20510;-81
2022/09/15 11:27:59;;;;;;;6.88;3.20;;;;;;;;;;10349394;28;20410;-80
2022/09/15 11:33:05;;;;;;;8.07;2.77;;;;;;;;;;10356984;28;20411;-79
2022/09/15 11:38:36;;;;;;;7.63;3.20;;;;;;;;;;10352056;28;20903;-81
2022/09/15 11:43:45;;;;;;;6.95;2.85;;;;;;;;;;10350460;28;20514;-81
2022/09/15 11:48:54;;;;;;;7.65;2.40;;;;;;;;;;10351332;28;20883;-80
2022/09/15 11:54:02;;;;;;;8.10;2.50;;;;;;;;;;10353136;28;20400;-79
2022/09/15 11:59:17;;;;;;;7.07;2.23;;;;;;;;;;10352797;28;20457;-79
2022/09/15 12:04:25;;;;;;;5.73;2.10;;;;;;;;;;10356219;28;20822;-80
2022/09/15 12:09:28;;;;;;;5.15;1.63;;;;;;;;;;10354744;28;20418;-79
2022/09/15 12:14:35;;;;;;;6.85;2.25;;;;;;;;;;10361437;28;20458;-79
2022/09/15 12:19:44;;;;;;;4.28;1.92;;;;;;;;;;10360721;28;21080;-79
2022/09/15 12:24:55;;;;;;;8.73;2.00;;;;;;;;;;10362391;28;20453;-78
2022/09/15 12:29:59;;;;;;;5.37;1.87;;;;;;;;;;10359437;28;20487;-79
2022/09/15 12:35:07;;;;;;;4.97;2.00;;;;;;;;;;10361790;28;21487;-79
2022/09/15 12:40:34;;;;;;;6.82;2.30;;;;;;;;;;10358575;28;20450;-79
2022/09/15 12:45:38;;;;;;;7.93;2.38;;;;;;;;;;10360157;28;20407;-80
2022/09/15 12:50:42;;;;;;;7.47;2.40;;;;;;;;;;10361241;28;20409;-80
2022/09/15 12:55:50;;;;;;;5.35;2.28;;;;;;;;;;10358442;28;20407;-80
2022/09/15 13:01:28;;;;;;;5.57;2.40;;;;;;;;;;10356790;28;20525;-80
2022/09/15 13:06:33;;;;;;;9.15;2.20;;;;;;;;;;10335268;28;20407;-81
2022/09/15 13:11:39;;;;;;;9.07;2.40;;;;;;;;;;10360156;28;20518;-82
2022/09/15 13:16:51;;;;;;;6.28;2.42;;;;;;;;;;10354150;28;20403;-82
2022/09/15 13:21:58;;;;;;;10.38;2.80;;;;;;;;;;10354647;28;20473;-82
2022/09/15 13:27:02;;;;;;;8.17;2.67;;;;;;;;;;10357600;28;20410;-80
2022/09/15 13:32:15;;;;;;;7.93;2.70;;;;;;;;;;10357904;28;20442;-80
2022/09/15 13:37:37;;;;;;;8.80;2.60;;;;;;;;;;10358269;28;20414;-81
2022/09/15 13:42:56;;;;;;;8.00;2.80;;;;;;;;;;10353883;28;20855;-80
2022/09/15 13:48:26;;;;;;;7.13;2.77;;;;;;;;;;10355807;28;20447;-82
2022/09/15 13:53:44;;;;;;;7.90;3.00;;;;;;;;;;10357991;28;20790;-81
2022/09/15 13:58:47;;;;;;;7.53;3.03;;;;;;;;;;10352712;28;20427;-82
2022/09/15 14:03:54;;;;;;;7.07;2.37;;;;;;;;;;10354491;28;20925;-81
2022/09/15 14:09:02;;;;;;;7.43;2.90;;;;;;;;;;10356500;28;20413;-81
2022/09/15 14:14:10;;;;;;;8.85;2.83;;;;;;;;;;10356422;28;20978;-82
2022/09/15 14:19:30;;;;;;;5.23;2.60;;;;;;;;;;10356681;28;20446;-82
2022/09/15 14:24:32;;;;;;;7.05;2.92;;;;;;;;;;10356727;28;20461;-81
2022/09/15 14:29:39;;;;;;;9.57;2.92;;;;;;;;;;10355506;28;20414;-82
2022/09/15 14:34:44;;;;;;;6.28;2.30;;;;;;;;;;10352361;28;20595;-80
2022/09/15 14:39:49;;;;;;;10.23;2.40;;;;;;;;;;10351567;28;20403;-81
2022/09/15 14:44:52;;;;;;;8.47;2.70;;;;;;;;;;10354337;28;20433;-81
2022/09/15 14:50:08;;;;;;;9.15;2.90;;;;;;;;;;10356099;28;20411;-81
2022/09/15 14:55:15;;;;;;;10.23;2.50;;;;;;;;;;10350922;28;20965;-81
2022/09/15 15:00:21;;;;;;;8.35;2.50;;;;;;;;;;10353790;28;20501;-81
2022/09/15 15:05:27;;;;;;;9.85;2.65;;;;;;;;;;10347709;28;20416;-81
2022/09/15 15:10:30;;;;;;;10.13;2.70;;;;;;;;;;10355839;28;20482;-81
2022/09/15 15:15:33;;;;;;;11.82;2.78;;;;;;;;;;10356223;28;20493;-83
2022/09/15 15:20:47;;;;;;;8.05;3.10;;;;;;;;;;10362209;28;20415;-82
2022/09/15 15:25:50;;;;;;;7.07;2.25;;;;;;;;;;10364316;28;20485;-83
2022/09/15 15:30:51;;;;;;;12.02;2.20;;;;;;;;;;10363262;28;20411;-82
2022/09/15 15:36:08;;;;;;;10.90;2.05;;;;;;;;;;10363364;28;20487;-82
2022/09/15 15:41:18;;;;;;;10.43;1.93;;;;;;;;;;10362760;28;20447;-83
2022/09/15 15:46:48;;;;;;;11.47;2.27;;;;;;;;;;10363341;28;20605;-82
2022/09/15 15:51:53;;;;;;;10.73;2.13;;;;;;;;;;10363541;28;20482;-82
2022/09/15 15:56:55;;;;;;;12.35;2.28;;;;;;;;;;10363312;28;20400;-82
2022/09/15 16:01:58;;;;;;;14.97;2.67;;;;;;;;;;10361904;28;20505;-81
2022/09/15 16:07:01;;;;;;;11.30;2.00;;;;;;;;;;10362256;28;20494;-81
2022/09/15 16:12:03;;;;;;;12.23;2.20;;;;;;;;;;10350155;28;20822;-82
2022/09/15 16:17:05;;;;;;;8.27;2.65;;;;;;;;;;10344286;28;20941;-81
2022/09/15 16:22:15;;;;;;;10.65;2.42;;;;;;;;;;10343430;28;20435;-82
2022/09/15 16:27:18;;;;;;;9.00;2.20;;;;;;;;;;10343424;28;20413;-80
2022/09/15 16:32:21;;;;;;;8.65;2.13;;;;;;;;;;10339597;28;20421;-81
2022/09/15 16:37:24;;;;;;;10.75;1.90;;;;;;;;;;10340969;28;20475;-80
2022/09/15 16:42:26;;;;;;;8.67;1.80;;;;;;;;;;10338379;28;20451;-81
2022/09/15 16:47:28;;;;;;;9.82;1.85;;;;;;;;;;10342298;28;20409;-81
2022/09/15 16:52:31;;;;;;;11.48;2.25;;;;;;;;;;10341822;28;20409;-81
2022/09/15 16:57:33;;;;;;;11.07;2.13;;;;;;;;;;10342288;28;20399;-82
2022/09/15 17:02:34;;;;;;;9.53;1.80;;;;;;;;;;10334329;28;20472;-81
2022/09/15 17:07:38;;;;;;;7.95;1.92;;;;;;;;;;10338334;28;20405;-81
2022/09/15 17:12:39;;;;;;;9.73;2.58;;;;;;;;;;10337717;28;20437;-81
2022/09/15 17:17:41;;;;;;;8.98;1.83;;;;;;;;;;10336485;28;20422;-79
2022/09/15 17:22:44;;;;;;;9.95;2.20;;;;;;;;;;10331405;28;20431;-80
2022/09/15 17:27:46;;;;;;;9.30;2.13;;;;;;;;;;10335693;28;20414;-81
2022/09/15 17:32:49;;;;;;;22.17;8.43;;;;;;;;;;10335804;28;20403;-75
2022/09/15 17:37:54;;;;;;;33.78;25.88;;;;;;;;;;10333292;28;20582;-78
2022/09/15 17:42:56;;;;;;;11.65;1.80;;;;;;;;;;10335021;28;21347;-80
2022/09/15 17:47:58;;;;;;;7.22;2.00;;;;;;;;;;10331050;28;21951;-75
2022/09/15 17:53:01;;;;;;;11.00;1.80;;;;;;;;;;10332186;28;20521;-81
2022/09/15 17:58:04;;;;;;;9.27;2.13;;;;;;;;;;10330231;28;20430;-77
2022/09/15 18:03:20;;;;;;;15.77;7.72;;;;;;;;;;10331302;28;20449;-80
2022/09/15 18:08:24;;;;;;;13.40;6.55;;;;;;;;;;10334096;28;20407;-79
2022/09/15 18:13:28;;;;;;;10.88;2.03;;;;;;;;;;10335223;28;20403;-80
2022/09/15 18:18:30;;;;;;;14.23;4.80;;;;;;;;;;10334449;28;20413;-76
2022/09/15 18:23:33;;;;;;;9.03;2.10;;;;;;;;;;10335248;28;20445;-82
2022/09/15 18:28:35;;;;;;;10.43;2.50;;;;;;;;;;10338266;28;20433;-81
2022/09/15 18:33:36;;;;;;;9.65;2.40;;;;;;;;;;10343729;28;20407;-82
2022/09/15 18:38:40;;;;;;;9.10;2.25;;;;;;;;;;10337421;28;20691;-81
2022/09/15 18:43:42;;;;;;;8.07;2.10;;;;;;;;;;10336522;28;20510;-81
2022/09/15 18:48:44;;;;;;;7.43;2.13;;;;;;;;;;10333678;28;20403;-81
2022/09/15 18:53:48;;;;;;;11.00;2.23;;;;;;;;;;10337608;28;21212;-80
2022/09/15 18:58:53;;;;;;;10.38;2.40;;;;;;;;;;10344842;28;20425;-80
2022/09/15 19:03:54;;;;;;;9.23;2.17;;;;;;;;;;10340172;28;20441;-80
2022/09/15 19:08:58;;;;;;;7.22;1.92;;;;;;;;;;10345803;28;20410;-81
2022/09/15 19:14:00;;;;;;;8.60;2.10;;;;;;;;;;10348059;28;20403;-81
2022/09/15 19:19:02;;;;;;;9.30;2.10;;;;;;;;;;10343308;28;20409;-81
2022/09/15 19:24:05;;;;;;;8.27;2.17;;;;;;;;;;10345598;28;20458;-81
2022/09/15 19:29:07;;;;;;;8.55;3.28;;;;;;;;;;10346349;28;20960;-81
2022/09/15 19:34:09;;;;;;;10.43;2.80;;;;;;;;;;10344105;28;20407;-81
2022/09/15 19:39:13;;;;;;;9.13;2.63;;;;;;;;;;10344211;28;20899;-81
2022/09/15 19:44:16;;;;;;;12.40;2.30;;;;;;;;;;10346801;28;20466;-82
2022/09/15 19:49:17;;;;;;;7.65;2.40;;;;;;;;;;10345950;28;20433;-80
2022/09/15 19:54:21;;;;;;;7.30;2.40;;;;;;;;;;10348287;28;20407;-81
2022/09/15 19:59:23;;;;;;;9.77;2.53;;;;;;;;;;10342022;28;20990;-81
2022/09/15 20:04:25;;;;;;;8.60;2.83;;;;;;;;;;10343928;28;20500;-81
2022/09/15 20:09:28;;;;;;;12.80;3.53;;;;;;;;;;10342065;28;20901;-81
2022/09/15 20:14:30;;;;;;;13.23;3.20;;;;;;;;;;10346723;28;20409;-81
2022/09/15 20:19:32;;;;;;;7.25;2.35;;;;;;;;;;10356615;28;20502;-80
2022/09/15 20:24:35;;;;;;;9.75;2.50;;;;;;;;;;10355999;28;20419;-81
2022/09/15 20:29:37;;;;;;;10.10;2.47;;;;;;;;;;10358429;28;20487;-81
2022/09/15 20:34:39;;;;;;;7.63;2.50;;;;;;;;;;10356156;28;20435;-81
2022/09/15 20:39:44;;;;;;;14.20;2.88;;;;;;;;;;10355609;28;20482;-81
2022/09/15 20:44:46;;;;;;;8.95;2.83;;;;;;;;;;10351821;28;21238;-80
2022/09/15 20:49:48;;;;;;;13.85;3.08;;;;;;;;;;10352950;28;20419;-81
2022/09/15 20:54:51;;;;;;;9.43;3.07;;;;;;;;;;10345253;28;20399;-80
2022/09/15 20:59:53;;;;;;;8.00;3.65;;;;;;;;;;10354185;28;20418;-80
2022/09/15 21:04:55;;;;;;;9.97;3.63;;;;;;;;;;10353331;28;20982;-80
2022/09/15 21:09:58;;;;;;;10.70;4.13;;;;;;;;;;10352402;28;20811;-81
2022/09/15 21:15:00;;;;;;;11.40;3.80;;;;;;;;;;10348600;28;20403;-81
2022/09/15 21:20:02;;;;;;;8.43;3.93;;;;;;;;;;10353472;28;20897;-79
2022/09/15 21:25:06;;;;;;;7.72;3.78;;;;;;;;;;10353443;28;20423;-80
2022/09/15 21:30:09;;;;;;;10.15;4.15;;;;;;;;;;10346629;28;20438;-80
2022/09/15 21:35:11;;;;;;;10.35;3.90;;;;;;;;;;10352153;28;20776;-81
2022/09/15 21:40:14;;;;;;;6.35;4.10;;;;;;;;;;10351562;28;20431;-81
2022/09/15 21:45:16;;;;;;;5.80;4.20;;;;;;;;;;10343521;28;20419;-82
2022/09/15 21:50:18;;;;;;;7.25;4.15;;;;;;;;;;10352860;28;20743;-80
2022/09/15 21:55:21;;;;;;;6.93;4.20;;;;;;;;;;10355945;28;20427;-81
2022/09/15 22:00:23;;;;;;;6.23;4.20;;;;;;;;;;10356542;28;20428;-82
2022/09/15 22:05:25;;;;;;;7.65;4.13;;;;;;;;;;10356966;28;20537;-82
2022/09/15 22:10:29;;;;;;;5.35;4.00;;;;;;;;;;10357598;28;20411;-81
2022/09/15 22:15:30;;;;;;;6.85;4.10;;;;;;;;;;10357062;28;20402;-81
2022/09/15 22:20:32;;;;;;;7.15;3.95;;;;;;;;;;10357809;28;20398;-82
2022/09/15 22:25:35;;;;;;;8.55;3.78;;;;;;;;;;10357172;28;20455;-80
2022/09/15 22:30:37;;;;;;;6.07;3.60;;;;;;;;;;10351190;28;21022;-82
2022/09/15 22:35:39;;;;;;;10.25;4.07;;;;;;;;;;10353955;28;20421;-82
2022/09/15 22:40:42;;;;;;;11.13;3.60;;;;;;;;;;10353202;28;20405;-80
2022/09/15 22:45:46;;;;;;;5.75;3.30;;;;;;;;;;10353002;28;20903;-81
2022/09/15 22:50:47;;;;;;;7.28;3.15;;;;;;;;;;10350515;28;20415;-81
2022/09/15 22:55:51;;;;;;;5.25;3.00;;;;;;;;;;10352965;28;20486;-79
2022/09/15 23:00:53;;;;;;;5.70;2.72;;;;;;;;;;10354409;28;20404;-82
2022/09/15 23:05:57;;;;;;;7.97;3.00;;;;;;;;;;10354133;28;20435;-81
2022/09/15 23:11:09;;;;;;;6.30;3.07;;;;;;;;;;10352722;28;20414;-81
2022/09/15 23:16:11;;;;;;;6.53;2.95;;;;;;;;;;10343248;28;20399;-81
2022/09/15 23:21:13;;;;;;;6.40;2.90;;;;;;;;;;10351296;28;20482;-80
2022/09/15 23:26:18;;;;;;;5.73;2.50;;;;;;;;;;10356715;28;20860;-81
2022/09/15 23:31:21;;;;;;;4.40;2.57;;;;;;;;;;10357340;28;20927;-81
2022/09/15 23:36:22;;;;;;;5.28;2.50;;;;;;;;;;10357492;28;20406;-82
2022/09/15 23:41:26;;;;;;;6.10;2.53;;;;;;;;;;10362367;28;20406;-82
2022/09/15 23:46:27;;;;;;;8.53;2.80;;;;;;;;;;10364763;28;20434;-81
2022/09/15 23:51:30;;;;;;;6.72;3.40;;;;;;;;;;10363916;28;20406;-83
2022/09/15 23:56:33;;;;;;;8.43;2.92;;;;;;;;;;10357813;28;20407;-81
